createdAt,value
2019-02-23T00:01:25.062Z,74.93
2019-02-23T00:03:59.117Z,74.23
2019-02-23T00:09:13.352Z,73.17
2019-02-23T00:11:48.444Z,72.03
2019-02-23T00:14:22.379Z,71.13
2019-02-23T00:16:56.521Z,68.70
2019-02-23T00:19:29.890Z,71.37
2019-02-23T00:22:04.171Z,67.40
2019-02-23T00:24:39.474Z,65.12
2019-02-23T00:27:17.980Z,64.77
2019-02-23T00:30:00.037Z,65.10
2019-02-23T00:32:34.727Z,63.93
2019-02-23T00:35:09.456Z,67.30
2019-02-23T00:37:46.518Z,65.28
2019-02-23T00:40:21.212Z,62.33
2019-02-23T00:43:00.826Z,63.27
2019-02-23T00:45:46.292Z,64.77
2019-02-23T00:48:20.695Z,63.10
2019-02-23T00:50:56.719Z,61.60
2019-02-23T00:53:32.236Z,64.20
2019-02-23T00:56:05.729Z,61.77
2019-02-23T00:58:39.575Z,62.17
2019-02-23T01:01:13.935Z,61.18
2019-02-23T01:03:49.063Z,65.08
2019-02-23T01:06:23.659Z,64.57
2019-02-23T01:08:57.570Z,64.10
2019-02-23T01:11:32.067Z,67.23
2019-02-23T01:14:06.997Z,65.33
2019-02-23T01:16:42.003Z,61.63
2019-02-23T01:19:18.060Z,70.10
2019-02-23T01:21:51.927Z,64.95
2019-02-23T01:24:25.869Z,69.07
2019-02-23T01:27:02.207Z,67.53
2019-02-23T01:29:42.224Z,70.77
2019-02-23T01:32:16.865Z,64.33
2019-02-23T01:34:52.056Z,70.57
2019-02-23T01:37:26.857Z,68.67
2019-02-23T01:40:01.908Z,66.90
2019-02-23T01:42:35.754Z,72.00
2019-02-23T01:45:10.375Z,61.13
2019-02-23T01:47:44.644Z,65.27
2019-02-23T01:50:25.492Z,68.87
2019-02-23T01:53:00.812Z,54.33
2019-02-23T01:55:35.711Z,55.13
2019-02-23T01:58:10.663Z,54.23
2019-02-23T02:00:46.905Z,53.38
2019-02-23T02:03:22.967Z,58.00
2019-02-23T02:05:58.765Z,50.73
2019-02-23T02:08:33.569Z,51.97
2019-02-23T02:11:11.595Z,54.00
2019-02-23T02:13:48.422Z,56.58
2019-02-23T02:16:23.115Z,58.30
2019-02-23T02:18:58.455Z,61.00
2019-02-23T02:21:33.164Z,64.60
2019-02-23T02:24:07.644Z,67.80
2019-02-23T02:26:43.955Z,67.77
2019-02-23T02:29:17.808Z,61.97
2019-02-23T02:31:51.887Z,60.03
2019-02-23T02:34:26.068Z,58.27
2019-02-23T02:36:59.914Z,56.93
2019-02-23T02:39:34.115Z,59.77
2019-02-23T02:42:09.328Z,60.88
2019-02-23T02:44:44.023Z,50.73
2019-02-23T02:47:17.878Z,25.60
2019-02-23T02:49:51.976Z,27.57
2019-02-23T02:52:28.223Z,22.05
2019-02-23T02:55:02.407Z,18.95
2019-02-23T02:57:38.135Z,19.67
2019-02-23T03:00:14.111Z,18.50
2019-02-23T03:02:50.617Z,17.87
2019-02-23T03:05:24.516Z,16.27
2019-02-23T03:07:58.999Z,16.57
2019-02-23T03:10:34.175Z,18.00
2019-02-23T03:13:08.627Z,18.27
2019-02-23T03:15:44.611Z,18.20
2019-02-23T03:18:19.776Z,20.03
2019-02-23T03:20:53.936Z,20.37
2019-02-23T03:23:28.622Z,17.40
2019-02-23T03:26:05.290Z,16.80
2019-02-23T03:28:40.196Z,14.20
2019-02-23T03:31:14.927Z,15.93
2019-02-23T03:33:52.185Z,16.23
2019-02-23T03:36:30.831Z,16.80
2019-02-23T03:39:12.303Z,17.53
2019-02-23T03:41:52.772Z,19.40
2019-02-23T03:44:29.745Z,21.93
2019-02-23T03:47:05.344Z,20.50
2019-02-23T03:49:39.419Z,21.70
2019-02-23T03:52:13.856Z,22.82
2019-02-23T03:54:49.175Z,24.60
2019-02-23T03:57:25.905Z,27.17
2019-02-23T04:00:02.647Z,27.80
2019-02-23T04:02:37.636Z,30.93
2019-02-23T04:05:12.954Z,31.63
2019-02-23T04:07:48.040Z,30.00
2019-02-23T04:10:22.621Z,29.95
2019-02-23T04:12:57.094Z,29.90
2019-02-23T04:15:35.301Z,25.20
2019-02-23T04:18:11.788Z,22.67
2019-02-23T04:20:48.221Z,21.73
2019-02-23T04:23:22.494Z,21.60
2019-02-23T04:25:58.934Z,20.83
2019-02-23T04:28:33.521Z,20.63
2019-02-23T04:31:07.590Z,20.25
2019-02-23T04:33:42.220Z,18.87
2019-02-23T04:36:16.103Z,19.83
2019-02-23T04:38:50.029Z,20.00
2019-02-23T04:41:23.735Z,19.10
2019-02-23T04:43:58.958Z,19.40
2019-02-23T04:46:32.880Z,18.37
2019-02-23T04:49:06.795Z,17.60
2019-02-23T04:51:41.517Z,17.63
2019-02-23T04:54:15.879Z,17.87
2019-02-23T04:56:50.004Z,16.40
2019-02-23T04:59:24.364Z,16.83
2019-02-23T05:01:58.828Z,15.77
2019-02-23T05:04:33.667Z,16.17
2019-02-23T05:07:08.454Z,15.70
2019-02-23T05:09:42.889Z,16.07
2019-02-23T05:12:19.506Z,15.33
2019-02-23T05:14:54.193Z,15.00
2019-02-23T05:17:28.542Z,14.77
2019-02-23T05:20:04.626Z,15.20
2019-02-23T05:22:39.404Z,15.67
2019-02-23T05:25:13.980Z,15.43
2019-02-23T05:27:49.908Z,16.67
2019-02-23T05:30:25.051Z,16.43
2019-02-23T05:33:01.359Z,15.25
2019-02-23T05:35:35.603Z,17.03
2019-02-23T05:38:09.198Z,17.77
2019-02-23T05:40:44.736Z,18.10
2019-02-23T05:43:19.231Z,18.30
2019-02-23T05:45:54.191Z,18.03
2019-02-23T05:48:27.999Z,17.20
2019-02-23T05:51:01.891Z,15.90
2019-02-23T05:53:36.026Z,15.33
2019-02-23T05:56:13.900Z,16.40
2019-02-23T05:58:46.720Z,15.33
2019-02-23T06:01:22.631Z,15.53
2019-02-23T06:03:57.780Z,15.13
2019-02-23T06:06:32.906Z,15.70
2019-02-23T06:09:09.357Z,14.63
2019-02-23T06:11:44.799Z,14.70
2019-02-23T06:14:26.664Z,14.68
2019-02-23T06:17:03.906Z,14.13
2019-02-23T06:19:38.473Z,14.10
2019-02-23T06:22:14.890Z,14.90
2019-02-23T06:24:52.524Z,14.80
2019-02-23T06:27:30.949Z,15.70
2019-02-23T06:30:06.247Z,15.53
2019-02-23T06:32:43.379Z,16.07
2019-02-23T06:35:18.510Z,16.20
2019-02-23T06:37:53.823Z,17.20
2019-02-23T06:40:32.397Z,17.80
2019-02-23T06:43:09.074Z,16.30
2019-02-23T06:45:46.970Z,16.27
2019-02-23T06:48:21.989Z,16.30
2019-02-23T06:50:58.880Z,17.00
2019-02-23T06:53:34.858Z,16.70
2019-02-23T06:56:09.656Z,18.73
2019-02-23T06:58:44.808Z,18.20
2019-02-23T07:01:21.086Z,17.53
2019-02-23T07:03:57.355Z,17.70
2019-02-23T07:06:32.955Z,18.45
2019-02-23T07:09:07.614Z,17.13
2019-02-23T07:11:43.261Z,17.97
2019-02-23T07:14:18.463Z,18.57
2019-02-23T07:16:53.788Z,18.42
2019-02-23T07:19:30.617Z,20.27
2019-02-23T07:22:15.182Z,19.90
2019-02-23T07:24:46.830Z,19.60
2019-02-23T07:27:21.774Z,20.17
2019-02-23T07:29:58.675Z,19.07
2019-02-23T07:32:33.932Z,19.80
2019-02-23T07:35:08.887Z,20.08
2019-02-23T07:37:42.757Z,18.70
2019-02-23T07:40:19.740Z,19.67
2019-02-23T07:42:55.566Z,20.07
2019-02-23T07:45:29.525Z,19.17
2019-02-23T07:48:04.638Z,19.33
2019-02-23T07:50:40.024Z,20.73
2019-02-23T07:53:15.964Z,20.93
2019-02-23T07:55:57.349Z,20.40
2019-02-23T07:58:33.826Z,20.30
2019-02-23T08:01:09.057Z,20.70
2019-02-23T08:03:44.136Z,22.13
2019-02-23T08:06:21.886Z,21.37
2019-02-23T08:08:57.107Z,22.30
2019-02-23T08:11:32.607Z,22.47
2019-02-23T08:14:07.125Z,23.97
2019-02-23T08:16:42.576Z,27.27
2019-02-23T08:19:17.683Z,28.20
2019-02-23T08:21:51.617Z,26.23
2019-02-23T08:24:26.009Z,24.87
2019-02-23T08:27:01.217Z,24.77
2019-02-23T08:29:35.207Z,26.47
2019-02-23T08:32:08.928Z,25.73
2019-02-23T08:34:43.140Z,26.48
2019-02-23T08:37:17.237Z,28.80
2019-02-23T08:39:51.539Z,28.87
2019-02-23T08:42:25.477Z,29.53
2019-02-23T08:45:07.004Z,30.67
2019-02-23T08:47:41.057Z,30.23
2019-02-23T08:50:19.038Z,34.10
2019-02-23T08:52:53.517Z,31.57
2019-02-23T08:55:27.903Z,31.90
2019-02-23T08:58:02.477Z,32.57
2019-02-23T09:00:38.409Z,29.33
2019-02-23T09:03:13.358Z,26.93
2019-02-23T09:05:47.146Z,29.18
2019-02-23T09:08:23.174Z,27.17
2019-02-23T09:10:57.587Z,27.83
2019-02-23T09:13:32.507Z,26.87
2019-02-23T09:16:06.712Z,26.27
2019-02-23T09:18:41.574Z,27.40
2019-02-23T09:21:15.772Z,27.70
2019-02-23T09:23:50.419Z,29.53
2019-02-23T09:26:25.568Z,29.30
2019-02-23T09:29:01.909Z,28.40
2019-02-23T09:31:36.580Z,30.13
2019-02-23T09:34:10.639Z,29.48
2019-02-23T09:36:46.316Z,30.33
2019-02-23T09:39:20.235Z,29.77
2019-02-23T09:42:07.025Z,31.00
2019-02-23T09:44:32.599Z,31.40
2019-02-23T09:47:06.358Z,32.13
2019-02-23T09:49:40.271Z,33.93
2019-02-23T09:52:18.885Z,34.67
2019-02-23T09:54:52.635Z,34.20
2019-02-23T09:57:26.518Z,37.42
2019-02-23T10:00:01.449Z,39.83
2019-02-23T10:02:34.686Z,38.53
2019-02-23T10:05:09.361Z,37.83
2019-02-23T10:07:43.087Z,38.15
2019-02-23T10:10:16.956Z,37.40
2019-02-23T10:12:50.669Z,36.33
2019-02-23T10:15:24.979Z,38.50
2019-02-23T10:17:59.524Z,36.13
2019-02-23T10:20:45.937Z,35.33
2019-02-23T10:23:24.022Z,34.73
2019-02-23T10:25:58.529Z,33.53
2019-02-23T10:28:36.100Z,33.08
2019-02-23T10:31:11.442Z,31.23
2019-02-23T10:33:51.348Z,31.33
2019-02-23T10:36:26.677Z,30.47
2019-02-23T10:39:08.378Z,32.83
2019-02-23T10:41:44.992Z,31.80
2019-02-23T10:44:21.129Z,31.70
2019-02-23T10:46:56.546Z,30.43
2019-02-23T10:49:31.390Z,31.82
2019-02-23T10:52:06.949Z,32.87
2019-02-23T10:54:41.814Z,33.57
2019-02-23T10:57:17.823Z,32.87
2019-02-23T11:00:01.090Z,32.13
2019-02-23T11:02:39.361Z,33.03
2019-02-23T11:05:15.569Z,33.83
2019-02-23T11:07:55.208Z,33.93
2019-02-23T11:10:30.855Z,30.97
2019-02-23T11:13:10.474Z,30.47
2019-02-23T11:15:47.942Z,29.20
2019-02-23T11:18:24.567Z,30.67
2019-02-23T11:20:59.600Z,28.05
2019-02-23T11:23:43.943Z,27.63
2019-02-23T11:26:11.740Z,28.60
2019-02-23T11:28:49.771Z,29.00
2019-02-23T11:31:22.722Z,26.80
2019-02-23T11:33:57.537Z,28.17
2019-02-23T11:36:31.784Z,26.57
2019-02-23T11:39:06.813Z,27.87
2019-02-23T11:41:44.163Z,29.03
2019-02-23T11:44:19.240Z,30.50
2019-02-23T11:47:01.013Z,30.30
2019-02-23T11:49:31.260Z,33.37
2019-02-23T11:52:08.981Z,32.03
2019-02-23T11:54:44.083Z,33.87
2019-02-23T11:57:18.678Z,34.83
2019-02-23T11:59:54.261Z,33.93
2019-02-23T12:02:52.089Z,33.70
2019-02-23T12:05:24.474Z,34.53
2019-02-23T12:08:01.831Z,35.13
2019-02-23T12:10:38.361Z,36.70
2019-02-23T12:13:16.982Z,37.13
2019-02-23T12:15:54.887Z,35.43
2019-02-23T12:18:35.453Z,36.17
2019-02-23T12:21:14.391Z,36.53
2019-02-23T12:23:53.864Z,35.13
2019-02-23T12:26:31.514Z,35.10
2019-02-23T12:29:13.731Z,35.83
2019-02-23T12:31:50.158Z,36.17
2019-02-23T12:34:34.737Z,37.53
2019-02-23T12:37:10.733Z,37.25
2019-02-23T12:39:46.901Z,36.67
2019-02-23T12:42:28.258Z,37.00
2019-02-23T12:45:09.330Z,38.13
2019-02-23T12:47:45.012Z,37.90
2019-02-23T12:50:29.742Z,38.13
2019-02-23T12:53:06.395Z,37.97
2019-02-23T12:55:41.901Z,38.78
2019-02-23T12:58:19.460Z,39.87
2019-02-23T13:00:57.889Z,39.47
2019-02-23T13:03:33.322Z,39.43
2019-02-23T13:06:10.228Z,43.10
2019-02-23T13:09:21.847Z,40.77
2019-02-23T13:12:05.732Z,41.00
2019-02-23T13:15:01.083Z,43.27
2019-02-23T13:17:52.902Z,42.43
2019-02-23T13:20:50.313Z,43.93
2019-02-23T13:27:10.847Z,43.27
2019-02-23T13:30:17.106Z,44.47
2019-02-23T13:33:13.457Z,46.77
2019-02-23T13:35:57.245Z,46.05
2019-02-23T13:38:56.200Z,46.40
2019-02-23T13:41:32.845Z,48.77
2019-02-23T13:44:19.442Z,49.07
2019-02-23T13:57:14.015Z,49.93
2019-02-23T13:59:56.332Z,51.77
2019-02-23T14:03:10.975Z,51.68
2019-02-23T14:05:55.568Z,52.38
2019-02-23T14:09:00.401Z,50.23
2019-02-23T14:11:57.717Z,50.90
2019-02-23T14:14:42.186Z,50.03
2019-02-23T14:17:24.595Z,51.30
2019-02-23T14:20:19.306Z,49.67
2019-02-23T14:23:10.559Z,50.63
2019-02-23T14:26:05.003Z,47.17
2019-02-23T14:29:32.299Z,47.65
2019-02-23T14:32:15.929Z,47.50
2019-02-23T14:35:16.755Z,45.83
2019-02-23T14:38:05.585Z,45.70
2019-02-23T14:40:50.250Z,43.92
2019-02-23T14:43:56.734Z,42.93
2019-02-23T14:46:50.425Z,40.80
2019-02-23T14:50:03.012Z,40.20
2019-02-23T14:52:58.538Z,39.67
2019-02-23T14:55:57.757Z,38.17
2019-02-23T14:58:50.886Z,37.07
2019-02-23T15:01:34.017Z,36.60
2019-02-23T15:04:41.792Z,35.77
2019-02-23T15:07:22.421Z,35.67
2019-02-23T15:10:16.679Z,36.37
2019-02-23T15:13:33.861Z,36.50
2019-02-23T15:16:53.402Z,35.07
2019-02-23T15:19:55.253Z,34.83
2019-02-23T15:22:38.476Z,33.45
2019-02-23T15:25:45.235Z,33.80
2019-02-23T15:28:59.287Z,33.67
2019-02-23T15:32:00.509Z,33.27
2019-02-23T15:35:11.491Z,34.23
2019-02-23T15:38:07.607Z,34.10
2019-02-23T15:41:13.137Z,39.40
2019-02-23T15:44:10.458Z,39.25
2019-02-23T15:47:11.709Z,42.80
2019-02-23T15:49:46.251Z,43.92
2019-02-23T15:52:21.971Z,47.00
2019-02-23T15:54:56.105Z,46.77
2019-02-23T15:57:31.426Z,48.17
2019-02-23T16:00:05.536Z,49.70
2019-02-23T16:02:39.699Z,50.38
2019-02-23T16:05:16.284Z,49.60
2019-02-23T16:07:50.393Z,50.47
2019-02-23T16:10:26.740Z,49.43
2019-02-23T16:13:02.177Z,47.77
2019-02-23T16:15:40.229Z,47.97
2019-02-23T16:18:14.641Z,46.85
2019-02-23T16:20:52.175Z,46.57
2019-02-23T16:23:34.926Z,47.03
2019-02-23T16:26:06.713Z,49.30
2019-02-23T16:28:44.102Z,47.07
2019-02-23T16:31:18.780Z,48.42
2019-02-23T16:33:54.407Z,46.60
2019-02-23T16:36:29.694Z,46.73
2019-02-23T16:39:04.503Z,45.60
2019-02-23T16:41:43.121Z,45.23
2019-02-23T16:44:17.700Z,44.98
2019-02-23T16:46:52.731Z,45.97
2019-02-23T16:49:27.797Z,43.27
2019-02-23T16:52:02.002Z,44.47
2019-02-23T16:54:36.387Z,45.53
2019-02-23T16:57:18.913Z,45.78
2019-02-23T16:59:53.404Z,43.07
2019-02-23T17:02:27.959Z,43.70
2019-02-23T17:05:04.770Z,44.53
2019-02-23T17:07:42.343Z,43.80
2019-02-23T17:10:16.677Z,44.23
2019-02-23T17:12:52.188Z,46.27
2019-02-23T17:15:28.904Z,43.33
2019-02-23T17:18:03.320Z,44.80
2019-02-23T17:20:37.170Z,44.13
2019-02-23T17:23:10.998Z,43.97
2019-02-23T17:25:46.503Z,43.33
2019-02-23T17:28:22.305Z,44.73
2019-02-23T17:30:56.543Z,45.87
2019-02-23T17:33:30.332Z,44.08
2019-02-23T17:36:04.073Z,45.87
2019-02-23T17:38:37.620Z,46.07
2019-02-23T17:41:12.664Z,44.83
2019-02-23T17:43:46.582Z,45.60
2019-02-23T17:46:20.227Z,47.60
2019-02-23T17:48:53.918Z,45.33
2019-02-23T17:51:27.556Z,46.42
2019-02-23T17:54:02.352Z,46.13
2019-02-23T17:56:35.917Z,46.47
2019-02-23T17:59:09.439Z,46.50
2019-02-23T18:01:43.345Z,48.73
2019-02-23T18:04:25.064Z,48.07
2019-02-23T18:07:01.255Z,48.87
2019-02-23T18:09:36.223Z,47.93
2019-02-23T18:12:10.441Z,47.47
2019-02-23T18:14:45.251Z,48.07
2019-02-23T18:17:18.918Z,48.80
2019-02-23T18:19:53.361Z,48.77
2019-02-23T18:22:28.334Z,48.37
2019-02-23T18:25:02.058Z,47.88
2019-02-23T18:27:35.610Z,49.03
2019-02-23T18:30:14.066Z,50.63
2019-02-23T18:32:48.148Z,49.97
2019-02-23T18:35:22.400Z,50.83
2019-02-23T18:37:56.513Z,50.05
2019-02-23T18:40:31.175Z,53.23
2019-02-23T18:43:06.142Z,51.93
2019-02-23T18:45:47.202Z,51.83
2019-02-23T18:48:15.312Z,50.77
2019-02-23T18:50:49.260Z,52.03
2019-02-23T18:53:23.918Z,52.07
2019-02-23T18:55:57.398Z,51.70
2019-02-23T18:58:33.512Z,53.13
2019-02-23T19:01:07.874Z,52.90
2019-02-23T19:03:41.680Z,53.53
2019-02-23T19:06:15.360Z,55.73
2019-02-23T19:08:49.024Z,54.97
2019-02-23T19:11:24.333Z,55.00
2019-02-23T19:13:58.258Z,54.60
2019-02-23T19:16:32.702Z,54.38
2019-02-23T19:19:06.248Z,55.07
2019-02-23T19:21:40.015Z,56.20
2019-02-23T19:24:13.649Z,55.47
2019-02-23T19:26:47.234Z,54.63
2019-02-23T19:29:21.684Z,55.57
2019-02-23T19:31:55.143Z,55.37
2019-02-23T19:34:28.845Z,57.60
2019-02-23T19:37:02.422Z,58.17
2019-02-23T19:39:36.025Z,55.20
2019-02-23T19:42:09.750Z,55.37
2019-02-23T19:44:43.719Z,54.13
2019-02-23T19:47:17.471Z,53.97
2019-02-23T19:49:52.746Z,53.13
2019-02-23T19:52:26.865Z,53.20
2019-02-23T19:55:01.707Z,51.80
2019-02-23T19:57:36.417Z,51.33
2019-02-23T20:00:11.757Z,52.97
2019-02-23T20:03:05.060Z,52.35
2019-02-23T20:05:38.860Z,50.70
2019-02-23T20:08:12.630Z,50.80
2019-02-23T20:10:47.054Z,50.83
2019-02-23T20:13:21.502Z,48.40
2019-02-23T20:15:55.917Z,50.63
2019-02-23T20:18:33.264Z,50.10
2019-02-23T20:21:07.453Z,50.73
2019-02-23T20:23:43.129Z,48.17
2019-02-23T20:26:17.164Z,51.90
2019-02-23T20:28:50.981Z,51.90
2019-02-23T20:31:26.206Z,50.47
2019-02-23T20:34:00.006Z,49.87
2019-02-23T20:36:35.032Z,47.63
2019-02-23T20:39:10.336Z,48.98
2019-02-23T20:41:44.114Z,51.03
2019-02-23T20:44:19.163Z,49.27
2019-02-23T20:46:52.903Z,49.53
2019-02-23T20:49:26.558Z,49.43
2019-02-23T20:52:06.198Z,48.73
2019-02-23T20:54:39.834Z,49.33
2019-02-23T20:57:13.937Z,49.03
2019-02-23T20:59:48.084Z,49.40
2019-02-23T21:02:27.399Z,48.10
2019-02-23T21:05:03.078Z,48.00
2019-02-23T21:07:36.688Z,49.67
2019-02-23T21:10:13.165Z,47.93
2019-02-23T21:12:48.909Z,46.83
2019-02-23T21:15:22.885Z,47.20
2019-02-23T21:17:56.659Z,45.97
2019-02-23T21:20:30.749Z,46.40
2019-02-23T21:23:04.482Z,45.03
2019-02-23T21:25:38.122Z,46.50
2019-02-23T21:28:12.717Z,46.73
2019-02-23T21:30:47.609Z,45.80
2019-02-23T21:33:22.494Z,45.07
2019-02-23T21:35:57.919Z,43.60
2019-02-23T21:38:31.696Z,44.03
2019-02-23T21:41:05.670Z,42.90
2019-02-23T21:43:40.027Z,41.80
2019-02-23T21:46:13.988Z,43.23
2019-02-23T21:48:47.673Z,42.40
2019-02-23T21:51:21.644Z,41.10
2019-02-23T21:53:57.025Z,42.97
2019-02-23T21:56:31.374Z,42.07
2019-02-23T21:59:05.241Z,41.75
2019-02-23T22:01:38.801Z,42.43
2019-02-23T22:04:13.450Z,41.73
2019-02-23T22:06:49.100Z,41.68
2019-02-23T22:09:23.111Z,41.05
2019-02-23T22:11:58.307Z,40.97
2019-02-23T22:14:32.451Z,41.30
2019-02-23T22:17:06.116Z,41.17
2019-02-23T22:19:39.917Z,39.63
2019-02-23T22:22:17.947Z,39.63
2019-02-23T22:24:51.739Z,39.70
2019-02-23T22:27:31.124Z,40.30
2019-02-23T22:30:00.578Z,37.53
2019-02-23T22:32:35.718Z,38.85
2019-02-23T22:35:09.461Z,37.53
2019-02-23T22:37:43.471Z,39.20
2019-02-23T22:40:17.308Z,37.83
2019-02-23T22:42:51.238Z,38.10
2019-02-23T22:45:26.483Z,36.97
2019-02-23T22:48:00.241Z,37.43
2019-02-23T22:50:35.740Z,38.30
2019-02-23T22:53:08.986Z,36.37
2019-02-23T22:55:43.494Z,36.45
2019-02-23T22:58:17.333Z,35.77
2019-02-23T23:00:51.226Z,35.33
2019-02-23T23:03:25.207Z,34.87
2019-02-23T23:05:59.196Z,34.67
2019-02-23T23:08:32.934Z,35.50
2019-02-23T23:11:06.838Z,36.13
2019-02-23T23:13:40.391Z,34.87
2019-02-23T23:16:14.250Z,35.50
2019-02-23T23:18:47.952Z,35.78
2019-02-23T23:21:22.212Z,35.87
2019-02-23T23:23:56.322Z,34.03
2019-02-23T23:26:30.088Z,34.60
2019-02-23T23:29:03.855Z,35.37
2019-02-23T23:31:37.665Z,34.83
2019-02-23T23:34:12.838Z,33.97
2019-02-23T23:36:46.480Z,34.17
2019-02-23T23:39:20.597Z,33.73
2019-02-23T23:41:55.915Z,34.27
2019-02-23T23:44:29.772Z,34.17
2019-02-23T23:47:03.547Z,35.80
2019-02-23T23:49:37.547Z,35.43
2019-02-23T23:52:11.336Z,33.80
2019-02-23T23:54:45.199Z,37.48
2019-02-23T23:57:19.092Z,41.13
2019-02-23T23:59:53.263Z,37.70
